createdAt,value
2023-01-20T00:04:35.493Z,100545.97
2023-01-20T00:12:09.420Z,100543.41
2023-01-20T00:19:44.714Z,100550.59
2023-01-20T00:27:20.542Z,100559.56
2023-01-20T00:34:55.731Z,100560.50
2023-01-20T00:42:29.920Z,100570.38
2023-01-20T00:50:05.869Z,100577.56
2023-01-20T00:57:39.876Z,100572.22
2023-01-20T01:05:15.492Z,100583.53
2023-01-20T01:12:49.383Z,100591.09
2023-01-20T01:20:25.124Z,100605.13
2023-01-20T01:27:59.473Z,100607.63
2023-01-20T01:35:34.457Z,100608.47
2023-01-20T01:43:22.011Z,100619.06
2023-01-20T01:51:01.360Z,100623.50
2023-01-20T01:58:38.602Z,100638.06
2023-01-20T02:06:15.431Z,100645.81
2023-01-20T02:13:49.590Z,100663.41
2023-01-20T02:21:50.496Z,100665.06
2023-01-20T02:29:52.741Z,100678.97
2023-01-20T02:37:30.384Z,100694.75
2023-01-20T02:45:10.124Z,100696.66
2023-01-20T02:52:50.124Z,100708.78
2023-01-20T03:00:28.670Z,100715.81
2023-01-20T03:08:07.661Z,100725.47
2023-01-20T03:15:50.084Z,100720.22
2023-01-20T03:23:26.268Z,100738.34
2023-01-20T03:31:01.617Z,100746.66
2023-01-20T03:38:37.152Z,100751.53
2023-01-20T03:46:17.740Z,100750.97
2023-01-20T03:53:57.136Z,100760.41
2023-01-20T04:01:35.275Z,100769.16
2023-01-20T04:09:15.140Z,100781.41
2023-01-20T04:16:54.708Z,100789.91
2023-01-20T04:24:34.533Z,100794.94
2023-01-20T04:32:09.006Z,100801.50
2023-01-20T04:39:44.422Z,100806.06
2023-01-20T04:47:18.319Z,100812.94
2023-01-20T04:54:54.420Z,100822.63
2023-01-20T05:02:28.617Z,100828.66
2023-01-20T05:10:03.906Z,100841.75
2023-01-20T05:17:37.866Z,100846.69
2023-01-20T05:25:13.352Z,100856.13
2023-01-20T05:32:50.271Z,100858.75
2023-01-20T05:40:25.508Z,100880.47
2023-01-20T05:48:00.354Z,100892.28
2023-01-20T05:55:35.663Z,100909.88
2023-01-20T06:03:09.769Z,100916.78
2023-01-20T06:10:45.137Z,100917.94
2023-01-20T06:18:19.569Z,100940.34
2023-01-20T06:26:00.875Z,100949.25
2023-01-20T06:33:35.479Z,100957.91
2023-01-20T06:41:11.842Z,100978.25
2023-01-20T06:48:46.840Z,101000.47
2023-01-20T06:56:22.147Z,101010.28
2023-01-20T07:03:56.474Z,101023.34
2023-01-20T07:11:31.820Z,101028.25
2023-01-20T07:19:05.655Z,101034.88
2023-01-20T07:26:41.058Z,101050.16
2023-01-20T07:34:16.046Z,101054.16
2023-01-20T07:41:51.192Z,101068.44
2023-01-20T07:49:25.020Z,101065.97
2023-01-20T07:57:00.193Z,101086.31
2023-01-20T08:04:34.759Z,101089.91
2023-01-20T08:12:09.888Z,101098.72
2023-01-20T08:19:43.683Z,101102.34
2023-01-20T08:27:19.980Z,101115.41
2023-01-20T08:34:55.255Z,101117.22
2023-01-20T08:42:30.543Z,101117.97
2023-01-20T08:50:04.841Z,101135.91
2023-01-20T08:57:39.910Z,101143.88
2023-01-20T09:05:15.076Z,101136.78
2023-01-20T09:12:50.412Z,101163.63
2023-01-20T09:20:24.815Z,101178.78
2023-01-20T09:28:02.527Z,101189.50
2023-01-20T09:35:36.688Z,101197.47
2023-01-20T09:43:39.430Z,101208.16
2023-01-20T09:51:37.527Z,101217.88
2023-01-20T09:59:19.787Z,101214.59
2023-01-20T10:06:56.717Z,101236.00
2023-01-20T10:14:36.458Z,101238.63
2023-01-20T10:22:14.906Z,101250.16
2023-01-20T10:29:55.639Z,101243.97
2023-01-20T10:37:32.713Z,101246.31
2023-01-20T10:45:19.402Z,101247.25
2023-01-20T10:53:14.066Z,101252.28
2023-01-20T11:00:50.692Z,101258.31
2023-01-20T11:08:28.697Z,101265.38
2023-01-20T11:16:11.781Z,101262.13
2023-01-20T11:23:52.138Z,101264.09
2023-01-20T11:31:39.750Z,101264.94
2023-01-20T11:39:26.831Z,101268.81
2023-01-20T11:47:22.968Z,101271.25
2023-01-20T11:55:10.439Z,101275.16
2023-01-20T12:02:57.484Z,101275.59
2023-01-20T12:10:35.484Z,101283.69
2023-01-20T12:18:17.928Z,101290.00
2023-01-20T12:25:56.706Z,101301.28
2023-01-20T12:33:34.192Z,101305.19
2023-01-20T12:41:14.749Z,101330.91
2023-01-20T12:49:02.208Z,101335.78
2023-01-20T12:56:43.345Z,101343.03
2023-01-20T13:05:00.378Z,101354.50
2023-01-20T13:12:49.331Z,101363.75
2023-01-20T13:20:27.439Z,101377.28
2023-01-20T13:28:01.867Z,101387.56
2023-01-20T13:35:45.628Z,101385.66
2023-01-20T13:43:51.674Z,101398.19
2023-01-20T13:51:46.370Z,101404.63
2023-01-20T13:59:20.295Z,101418.44
2023-01-20T14:06:55.539Z,101415.47
2023-01-20T14:14:29.520Z,101407.75
2023-01-20T14:22:17.613Z,101427.81
2023-01-20T14:29:53.165Z,101435.59
2023-01-20T14:37:30.408Z,101444.44
2023-01-20T14:45:05.071Z,101457.59
2023-01-20T14:52:40.338Z,101462.03
2023-01-20T15:00:17.621Z,101477.84
2023-01-20T15:08:05.515Z,101490.81
2023-01-20T15:15:39.634Z,101514.53
2023-01-20T15:23:20.327Z,101515.34
2023-01-20T15:30:56.709Z,101525.63
2023-01-20T15:38:33.299Z,101535.03
2023-01-20T15:46:11.003Z,101546.31
2023-01-20T15:53:46.960Z,101563.44
2023-01-20T16:01:24.009Z,101579.56
2023-01-20T16:09:01.199Z,101592.06
2023-01-20T16:16:35.759Z,101606.53
2023-01-20T16:24:11.976Z,101602.53
2023-01-20T16:31:46.218Z,101626.13
2023-01-20T16:39:21.453Z,101628.53
2023-01-20T16:46:57.474Z,101639.97
2023-01-20T16:54:32.648Z,101652.41
2023-01-20T17:02:06.548Z,101663.22
2023-01-20T17:09:43.526Z,101672.31
2023-01-20T17:17:17.554Z,101683.81
2023-01-20T17:28:25.454Z,101695.59
2023-01-20T17:36:00.307Z,101711.66
2023-01-20T17:43:36.872Z,101721.34
2023-01-20T17:51:12.195Z,101729.03
2023-01-20T17:58:48.742Z,101735.75
2023-01-20T18:06:24.409Z,101733.31
2023-01-20T18:14:01.880Z,101746.69
2023-01-20T18:21:37.060Z,101750.69
2023-01-20T18:29:15.214Z,101759.50
2023-01-20T18:36:49.998Z,101780.53
2023-01-20T18:44:25.460Z,101783.38
2023-01-20T18:51:59.333Z,101786.81
2023-01-20T18:59:34.538Z,101799.34
2023-01-20T19:07:08.418Z,101799.91
2023-01-20T19:14:43.678Z,101816.31
2023-01-20T19:22:17.701Z,101825.53
2023-01-20T19:29:53.734Z,101827.50
2023-01-20T19:37:28.907Z,101840.75
2023-01-20T19:45:04.268Z,101850.88
2023-01-20T19:52:38.304Z,101859.59
2023-01-20T20:00:14.913Z,101869.50
2023-01-20T20:07:51.089Z,101877.38
2023-01-20T20:15:26.315Z,101883.34
2023-01-20T20:23:00.395Z,101888.59
2023-01-20T20:30:35.774Z,101889.28
2023-01-20T20:38:09.564Z,101900.38
2023-01-20T20:45:44.633Z,101905.03
2023-01-20T20:53:19.416Z,101918.28
2023-01-20T21:00:56.601Z,101924.91
2023-01-20T21:08:30.535Z,101938.06
2023-01-20T21:16:10.035Z,101950.28
2023-01-20T21:23:44.214Z,101953.38
2023-01-20T21:31:21.065Z,101953.75
2023-01-20T21:38:54.929Z,101957.16
2023-01-20T21:46:31.923Z,101978.06
2023-01-20T21:54:06.208Z,101989.84
2023-01-20T22:01:41.962Z,101999.91
2023-01-20T22:09:15.736Z,102005.63
2023-01-20T22:16:51.228Z,102017.72
2023-01-20T22:24:25.137Z,102010.19
2023-01-20T22:32:02.593Z,102022.97
2023-01-20T22:39:36.404Z,102034.06
2023-01-20T22:47:11.609Z,102041.47
2023-01-20T22:54:45.413Z,102046.16
2023-01-20T23:02:20.616Z,102052.75
2023-01-20T23:09:54.548Z,102059.50
2023-01-20T23:17:32.052Z,102059.13
2023-01-20T23:25:08.481Z,102069.50
2023-01-20T23:32:44.849Z,102075.06
2023-01-20T23:40:19.733Z,102071.06
2023-01-20T23:47:54.973Z,102077.69
2023-01-20T23:55:29.113Z,102078.97
